Time;durP1;ratioP1;P1;durP2;ratioP2;P2;SDS_P1;SDS_P2;PMS_P1;PMS_P2;Temp;Humidity;BMP_temperature;BMP_pressure;BME280_temperature;BME280_humidity;BME280_pressure;Samples;Min_cycle;Max_cycle;Signal;HPM_P1;HPM_P2
2022/11/07 00:01:08;;;;;;;;;;;12.40;99.90;;;;;;5028101;28;19924;-71
2022/11/07 00:03:33;;;;;;;;;;;12.30;99.90;;;;;;5025593;28;19913;-79
2022/11/07 00:06:00;;;;;;;;;;;12.10;99.90;;;;;;5030774;28;19924;-71
2022/11/07 00:08:30;;;;;;;;;;;12.00;99.90;;;;;;5030289;28;19913;-70
2022/11/07 00:10:56;;;;;;;;;;;12.00;99.90;;;;;;5021065;28;19920;-68
2022/11/07 00:13:22;;;;;;;;;;;12.00;99.90;;;;;;5028733;28;19921;-68
2022/11/07 00:15:47;;;;;;;;;;;12.10;99.90;;;;;;5030397;28;19959;-68
2022/11/07 00:18:13;;;;;;;;;;;12.10;99.90;;;;;;5029996;28;19971;-67
2022/11/07 00:20:38;;;;;;;;;;;12.10;99.90;;;;;;5031721;28;19924;-65
2022/11/07 00:23:04;;;;;;;;;;;12.10;99.90;;;;;;5031194;28;20011;-66
2022/11/07 00:25:29;;;;;;;;;;;12.30;99.90;;;;;;5027992;28;19913;-65
2022/11/07 00:27:55;;;;;;;;;;;12.40;99.90;;;;;;5031222;28;19920;-64
2022/11/07 00:30:20;;;;;;;;;;;12.40;99.90;;;;;;5029835;28;19913;-63
2022/11/07 00:32:46;;;;;;;;;;;12.50;99.90;;;;;;5030620;28;19921;-64
2022/11/07 00:35:12;;;;;;;;;;;12.50;99.90;;;;;;5019599;28;19913;-64
2022/11/07 00:37:37;;;;;;;;;;;12.50;99.90;;;;;;5028506;28;19913;-63
2022/11/07 00:40:03;;;;;;;;;;;12.50;99.90;;;;;;5031320;28;20274;-64
2022/11/07 00:42:28;;;;;;;;;;;12.40;99.90;;;;;;5028910;28;19939;-64
2022/11/07 00:44:54;;;;;;;;;;;12.40;99.90;;;;;;5030376;28;19928;-63
2022/11/07 00:47:20;;;;;;;;;;;12.40;99.90;;;;;;5024391;28;19920;-64
2022/11/07 00:49:45;;;;;;;;;;;12.40;99.90;;;;;;5030942;28;19924;-64
2022/11/07 00:52:11;;;;;;;;;;;12.40;99.90;;;;;;5028204;28;19920;-64
2022/11/07 00:54:36;;;;;;;;;;;12.40;99.90;;;;;;5029991;28;19936;-64
2022/11/07 00:57:02;;;;;;;;;;;12.50;99.90;;;;;;5019095;28;19913;-63
2022/11/07 00:59:27;;;;;;;;;;;12.50;99.90;;;;;;5029207;28;19925;-63
2022/11/07 01:01:53;;;;;;;;;;;12.50;99.90;;;;;;5030877;28;19949;-62
2022/11/07 01:07:21;;;;;;;;;;;12.80;99.90;;;;;;5029099;28;19952;-68
2022/11/07 01:09:47;;;;;;;;;;;12.80;99.90;;;;;;5022174;28;19919;-68
2022/11/07 01:12:12;;;;;;;;;;;12.80;99.90;;;;;;5026960;28;19914;-67
2022/11/07 01:14:38;;;;;;;;;;;12.80;99.90;;;;;;5024991;28;20012;-66
2022/11/07 01:17:04;;;;;;;;;;;12.70;99.90;;;;;;5024408;28;19913;-66
2022/11/07 01:19:29;;;;;;;;;;;12.80;99.90;;;;;;5028243;28;19913;-69
2022/11/07 01:21:55;;;;;;;;;;;12.80;99.90;;;;;;5030675;28;19919;-69
2022/11/07 01:24:20;;;;;;;;;;;12.80;99.90;;;;;;5028020;28;19956;-68
2022/11/07 01:26:50;;;;;;;;;;;12.60;99.90;;;;;;5030666;28;20019;-67
2022/11/07 01:29:17;;;;;;;;;;;12.60;99.90;;;;;;5027314;28;20004;-64
2022/11/07 01:31:43;;;;;;;;;;;12.40;99.90;;;;;;5030519;28;20019;-65
2022/11/07 01:34:08;;;;;;;;;;;12.40;99.90;;;;;;5029714;28;20390;-65
2022/11/07 01:36:34;;;;;;;;;;;12.30;99.90;;;;;;5016910;28;19913;-65
2022/11/07 01:39:00;;;;;;;;;;;12.30;99.90;;;;;;5030314;28;19917;-64
2022/11/07 01:41:30;;;;;;;;;;;12.30;99.90;;;;;;5028544;28;19917;-64
2022/11/07 01:44:02;;;;;;;;;;;12.30;99.90;;;;;;5027711;28;20003;-64
2022/11/07 01:46:30;;;;;;;;;;;12.30;99.90;;;;;;5027687;28;19913;-63
2022/11/07 01:48:58;;;;;;;;;;;12.30;99.90;;;;;;5029150;28;19920;-63
2022/11/07 01:51:25;;;;;;;;;;;12.30;99.90;;;;;;5028577;28;19914;-63
2022/11/07 01:53:52;;;;;;;;;;;12.40;99.90;;;;;;5023878;28;19925;-62
2022/11/07 01:56:18;;;;;;;;;;;12.40;99.90;;;;;;5027220;28;19963;-63
2022/11/07 01:58:44;;;;;;;;;;;12.40;99.90;;;;;;5028397;28;19917;-64
2022/11/07 02:01:10;;;;;;;;;;;12.40;99.90;;;;;;5023664;28;20285;-63
2022/11/07 02:03:35;;;;;;;;;;;12.50;99.90;;;;;;5028165;28;20432;-63
2022/11/07 02:06:04;;;;;;;;;;;12.60;99.90;;;;;;5028280;28;19920;-64
2022/11/07 02:08:31;;;;;;;;;;;12.70;99.90;;;;;;5016088;28;19913;-63
2022/11/07 02:10:59;;;;;;;;;;;12.70;99.90;;;;;;5029883;28;19914;-64
2022/11/07 02:13:25;;;;;;;;;;;12.80;99.90;;;;;;5028054;28;19918;-64
2022/11/07 02:15:51;;;;;;;;;;;12.80;99.90;;;;;;5024595;28;19913;-63
2022/11/07 02:18:17;;;;;;;;;;;12.80;99.90;;;;;;5018228;28;19963;-63
2022/11/07 02:20:43;;;;;;;;;;;12.90;99.90;;;;;;5029542;28;19913;-64
2022/11/07 02:23:32;;;;;;;;;;;12.80;99.90;;;;;;5028931;28;19960;-64
2022/11/07 02:25:57;;;;;;;;;;;12.80;99.90;;;;;;5022232;28;20288;-64
2022/11/07 02:28:24;;;;;;;;;;;12.80;99.90;;;;;;5028834;28;19966;-64
2022/11/07 02:30:49;;;;;;;;;;;12.70;99.90;;;;;;5033619;28;20021;-64
2022/11/07 02:33:19;;;;;;;;;;;12.90;99.90;;;;;;5032198;28;19976;-65
2022/11/07 02:35:46;;;;;;;;;;;12.90;99.90;;;;;;5032826;28;19964;-63
2022/11/07 02:38:28;;;;;;;;;;;13.00;99.90;;;;;;5029928;28;19914;-63
2022/11/07 02:40:58;;;;;;;;;;;13.70;99.90;;;;;;5028859;28;19914;-62
2022/11/07 02:43:28;;;;;;;;;;;13.20;99.90;;;;;;5029331;28;20345;-63
2022/11/07 02:45:55;;;;;;;;;;;13.20;99.90;;;;;;5032861;28;19920;-66
2022/11/07 02:48:20;;;;;;;;;;;13.20;99.90;;;;;;5030906;28;19923;-62
2022/11/07 02:50:46;;;;;;;;;;;13.20;99.90;;;;;;5033202;28;19917;-62
2022/11/07 02:53:12;;;;;;;;;;;13.20;99.90;;;;;;5033090;28;20288;-62
2022/11/07 02:55:37;;;;;;;;;;;13.20;99.90;;;;;;5032649;28;20003;-62
2022/11/07 02:58:04;;;;;;;;;;;13.30;99.90;;;;;;5031219;28;19920;-63
2022/11/07 03:00:29;;;;;;;;;;;13.20;99.90;;;;;;5027088;28;19920;-62
2022/11/07 03:02:55;;;;;;;;;;;13.20;99.90;;;;;;5033233;28;20331;-62
2022/11/07 03:05:20;;;;;;;;;;;13.10;99.90;;;;;;5030385;28;19941;-63
2022/11/07 03:07:47;;;;;;;;;;;13.20;99.90;;;;;;5031987;28;19925;-62
2022/11/07 03:10:13;;;;;;;;;;;13.30;99.90;;;;;;5031136;28;19960;-62
2022/11/07 03:12:39;;;;;;;;;;;13.30;99.90;;;;;;5031886;28;19952;-61
2022/11/07 03:15:05;;;;;;;;;;;13.40;99.90;;;;;;5032423;28;19921;-62
2022/11/07 03:17:31;;;;;;;;;;;13.40;99.90;;;;;;5030434;28;20357;-61
2022/11/07 03:19:56;;;;;;;;;;;13.50;99.90;;;;;;5032566;28;19996;-62
2022/11/07 03:22:22;;;;;;;;;;;13.50;99.90;;;;;;5031102;28;19963;-61
2022/11/07 03:24:48;;;;;;;;;;;13.50;99.90;;;;;;5032647;28;19955;-62
2022/11/07 03:27:14;;;;;;;;;;;13.60;99.90;;;;;;5026638;28;19913;-62
2022/11/07 03:29:40;;;;;;;;;;;13.50;99.90;;;;;;5032074;28;19914;-62
2022/11/07 03:32:05;;;;;;;;;;;13.50;99.90;;;;;;5032580;28;19913;-62
2022/11/07 03:34:31;;;;;;;;;;;13.40;99.90;;;;;;5029254;28;20062;-62
2022/11/07 03:36:56;;;;;;;;;;;13.50;99.90;;;;;;5031987;28;19913;-62
2022/11/07 03:39:22;;;;;;;;;;;13.50;99.90;;;;;;5027855;28;19929;-62
2022/11/07 03:41:47;;;;;;;;;;;13.40;99.90;;;;;;5032811;28;19913;-62
2022/11/07 03:44:13;;;;;;;;;;;13.30;99.90;;;;;;5030451;28;19927;-63
2022/11/07 03:46:38;;;;;;;;;;;13.30;99.90;;;;;;5031723;28;19913;-62
2022/11/07 03:49:04;;;;;;;;;;;13.20;99.90;;;;;;5027648;28;19920;-62
2022/11/07 03:51:29;;;;;;;;;;;13.30;99.90;;;;;;5030395;28;19917;-63
2022/11/07 03:53:55;;;;;;;;;;;13.40;99.90;;;;;;5030408;28;19921;-62
2022/11/07 03:56:20;;;;;;;;;;;13.40;99.90;;;;;;5026953;28;19917;-62
2022/11/07 03:58:46;;;;;;;;;;;13.40;99.90;;;;;;5031921;28;19956;-62
2022/11/07 04:01:12;;;;;;;;;;;13.50;99.90;;;;;;5031921;28;19913;-62
2022/11/07 04:03:37;;;;;;;;;;;13.50;99.90;;;;;;5027464;28;19913;-62
2022/11/07 04:06:03;;;;;;;;;;;13.50;99.90;;;;;;5026981;28;19913;-62
2022/11/07 04:08:35;;;;;;;;;;;13.50;99.90;;;;;;5027297;28;19920;-66
2022/11/07 04:11:00;;;;;;;;;;;13.60;99.90;;;;;;5014957;28;19921;-67
2022/11/07 04:19:09;;;;;;;;;;;13.20;99.90;;;;;;5018095;28;19920;-68
2022/11/07 04:21:35;;;;;;;;;;;13.00;99.90;;;;;;5026356;28;19992;-67
2022/11/07 04:24:00;;;;;;;;;;;13.00;99.90;;;;;;5025205;28;20004;-67
2022/11/07 04:29:10;;;;;;;;;;;13.00;99.90;;;;;;5027519;28;19939;-66
2022/11/07 04:31:36;;;;;;;;;;;13.00;99.90;;;;;;5020788;28;20377;-66
2022/11/07 04:34:01;;;;;;;;;;;13.00;99.90;;;;;;5025761;28;19925;-65
2022/11/07 04:36:27;;;;;;;;;;;13.00;99.90;;;;;;5021256;28;20004;-66
2022/11/07 04:38:52;;;;;;;;;;;13.00;99.90;;;;;;5024927;28;19963;-70
2022/11/07 04:41:19;;;;;;;;;;;13.00;99.90;;;;;;5021962;28;19913;-69
2022/11/07 04:43:45;;;;;;;;;;;13.00;99.90;;;;;;5025057;28;19921;-68
2022/11/07 04:46:10;;;;;;;;;;;12.90;99.90;;;;;;5029090;28;19928;-68
2022/11/07 04:48:36;;;;;;;;;;;12.90;99.90;;;;;;5022885;28;19920;-67
2022/11/07 04:51:01;;;;;;;;;;;12.90;99.90;;;;;;5030008;28;19910;-67
2022/11/07 04:53:27;;;;;;;;;;;12.90;99.90;;;;;;5029520;28;20289;-67
2022/11/07 04:55:52;;;;;;;;;;;12.90;99.90;;;;;;5029527;28;19913;-66
2022/11/07 04:58:18;;;;;;;;;;;12.80;99.90;;;;;;5028806;28;20426;-66
2022/11/07 05:00:43;;;;;;;;;;;12.90;99.90;;;;;;5022080;28;19913;-65
2022/11/07 05:03:09;;;;;;;;;;;13.00;99.90;;;;;;5019512;28;20315;-65
2022/11/07 05:05:34;;;;;;;;;;;13.30;99.90;;;;;;5019252;28;20353;-64
2022/11/07 05:08:00;;;;;;;;;;;13.00;99.90;;;;;;5027980;28;19917;-64
2022/11/07 05:10:27;;;;;;;;;;;13.10;99.90;;;;;;5015307;28;19913;-64
2022/11/07 05:12:53;;;;;;;;;;;13.10;99.90;;;;;;5030201;28;19921;-64
2022/11/07 05:15:19;;;;;;;;;;;13.20;99.90;;;;;;5020072;28;19917;-64
2022/11/07 05:17:44;;;;;;;;;;;13.30;99.90;;;;;;5028843;28;20431;-63
2022/11/07 05:20:20;;;;;;;;;;;13.30;99.90;;;;;;5030451;28;19913;-63
2022/11/07 05:25:47;;;;;;;;;;;13.40;99.90;;;;;;5018574;28;19964;-66
2022/11/07 05:28:15;;;;;;;;;;;13.50;99.90;;;;;;5017371;28;19920;-75
2022/11/07 05:30:41;;;;;;;;;;;13.50;99.90;;;;;;5029729;28;19913;-69
2022/11/07 05:33:08;;;;;;;;;;;13.40;99.90;;;;;;5030297;28;19923;-68
2022/11/07 05:35:34;;;;;;;;;;;13.40;99.90;;;;;;5020804;28;19943;-67
2022/11/07 05:37:59;;;;;;;;;;;13.30;99.90;;;;;;5026271;28;20369;-67
2022/11/07 05:40:25;;;;;;;;;;;13.30;99.90;;;;;;5024702;28;19966;-65
2022/11/07 05:42:50;;;;;;;;;;;13.40;99.90;;;;;;5020697;28;20281;-63
2022/11/07 05:45:16;;;;;;;;;;;13.40;99.90;;;;;;5027562;28;19995;-70
2022/11/07 05:47:41;;;;;;;;;;;13.40;99.90;;;;;;5024749;28;19963;-75
2022/11/07 05:50:07;;;;;;;;;;;13.40;99.90;;;;;;5029739;28;19919;-70
2022/11/07 05:52:32;;;;;;;;;;;13.30;99.90;;;;;;5028384;28;19921;-69
2022/11/07 05:54:58;;;;;;;;;;;13.30;99.90;;;;;;5028257;28;19921;-67
2022/11/07 05:57:23;;;;;;;;;;;13.30;99.90;;;;;;5023315;28;20339;-66
2022/11/07 05:59:49;;;;;;;;;;;13.30;99.90;;;;;;5029051;28;20372;-66
2022/11/07 06:02:15;;;;;;;;;;;13.30;99.90;;;;;;5023270;28;19913;-66
2022/11/07 06:04:40;;;;;;;;;;;13.40;99.90;;;;;;5021450;28;20332;-77
2022/11/07 06:07:06;;;;;;;;;;;13.40;99.90;;;;;;5029610;28;19913;-73
2022/11/07 06:09:31;;;;;;;;;;;13.40;99.90;;;;;;5027012;28;19913;-74
2022/11/07 06:11:57;;;;;;;;;;;13.30;99.90;;;;;;5023164;28;19914;-73
2022/11/07 06:14:22;;;;;;;;;;;13.30;99.90;;;;;;5026162;28;20318;-65
2022/11/07 06:19:51;;;;;;;;;;;13.20;99.90;;;;;;5026126;28;19971;-82
2022/11/07 06:22:16;;;;;;;;;;;12.80;99.90;;;;;;5027945;28;19913;-73
2022/11/07 06:24:42;;;;;;;;;;;12.50;99.90;;;;;;5028160;28;19916;-75
2022/11/07 06:27:07;;;;;;;;;;;12.50;99.90;;;;;;5025391;28;19925;-74
2022/11/07 06:29:33;;;;;;;;;;;12.40;99.90;;;;;;5026274;28;19917;-71
2022/11/07 06:31:58;;;;;;;;;;;12.40;99.90;;;;;;5027719;28;19909;-74
2022/11/07 06:34:24;;;;;;;;;;;12.40;99.90;;;;;;5023465;28;19925;-74
2022/11/07 06:36:53;;;;;;;;;;;12.40;99.90;;;;;;5026761;28;19913;-73
2022/11/07 06:39:19;;;;;;;;;;;12.50;99.90;;;;;;5027986;28;19959;-67
2022/11/07 06:41:44;;;;;;;;;;;12.60;99.90;;;;;;5029260;28;20021;-74
2022/11/07 06:44:13;;;;;;;;;;;12.60;99.90;;;;;;5020987;28;20609;-69
2022/11/07 06:46:38;;;;;;;;;;;12.70;99.90;;;;;;5024590;28;19914;-68
2022/11/07 06:49:04;;;;;;;;;;;12.80;99.90;;;;;;5027060;28;19921;-67
2022/11/07 06:51:30;;;;;;;;;;;12.80;99.90;;;;;;5025728;28;19913;-66
2022/11/07 06:53:56;;;;;;;;;;;12.90;99.90;;;;;;5022205;28;19929;-65
2022/11/07 06:56:23;;;;;;;;;;;12.90;99.90;;;;;;5025665;28;19923;-65
2022/11/07 06:58:48;;;;;;;;;;;12.90;99.90;;;;;;5026934;28;20291;-66
2022/11/07 07:01:14;;;;;;;;;;;13.00;99.90;;;;;;5022848;28;20403;-69
2022/11/07 07:03:40;;;;;;;;;;;12.90;99.90;;;;;;5021863;28;19936;-68
2022/11/07 07:06:08;;;;;;;;;;;13.00;99.90;;;;;;5028586;28;19913;-67
2022/11/07 07:08:34;;;;;;;;;;;13.00;99.90;;;;;;5020572;28;19922;-68
2022/11/07 07:11:04;;;;;;;;;;;13.00;99.90;;;;;;5019155;28;19921;-69
2022/11/07 07:13:30;;;;;;;;;;;13.00;99.90;;;;;;5010677;28;20277;-67
2022/11/07 07:15:56;;;;;;;;;;;13.00;99.90;;;;;;5027389;28;19920;-67
2022/11/07 07:18:22;;;;;;;;;;;13.00;99.90;;;;;;5030944;28;19913;-66
2022/11/07 07:20:48;;;;;;;;;;;13.10;99.90;;;;;;5029626;28;19914;-66
2022/11/07 07:23:15;;;;;;;;;;;13.70;99.90;;;;;;5024486;28;19964;-65
2022/11/07 07:25:40;;;;;;;;;;;13.20;99.90;;;;;;5031975;28;20016;-66
2022/11/07 07:28:06;;;;;;;;;;;13.20;99.90;;;;;;5029899;28;20070;-66
2022/11/07 07:30:31;;;;;;;;;;;13.20;99.90;;;;;;5030530;28;19913;-66
2022/11/07 07:32:57;;;;;;;;;;;13.20;99.90;;;;;;5025793;28;19921;-65
2022/11/07 07:35:22;;;;;;;;;;;13.20;99.90;;;;;;5029718;28;19923;-66
2022/11/07 07:37:49;;;;;;;;;;;13.20;99.90;;;;;;5030634;28;20003;-67
2022/11/07 07:40:15;;;;;;;;;;;13.30;99.90;;;;;;5030254;28;19920;-67
2022/11/07 07:42:42;;;;;;;;;;;13.30;99.90;;;;;;5021687;28;19921;-78
2022/11/07 07:45:09;;;;;;;;;;;13.30;99.90;;;;;;5020853;28;19928;-75
2022/11/07 07:47:34;;;;;;;;;;;13.30;99.90;;;;;;5028650;28;19923;-69
2022/11/07 07:50:00;;;;;;;;;;;13.30;99.90;;;;;;5032038;28;19913;-74
2022/11/07 07:52:25;;;;;;;;;;;13.30;99.90;;;;;;5028273;28;20011;-70
2022/11/07 07:54:51;;;;;;;;;;;13.40;99.90;;;;;;5024800;28;19948;-72
2022/11/07 07:57:16;;;;;;;;;;;13.40;99.90;;;;;;5027012;28;19985;-70
2022/11/07 07:59:42;;;;;;;;;;;13.40;99.90;;;;;;5027894;28;19962;-68
2022/11/07 08:02:11;;;;;;;;;;;13.30;99.90;;;;;;5021550;28;19916;-70
2022/11/07 08:04:36;;;;;;;;;;;13.40;99.90;;;;;;5022797;28;20288;-69
2022/11/07 08:07:02;;;;;;;;;;;13.40;99.90;;;;;;5026021;28;19914;-70
2022/11/07 08:09:35;;;;;;;;;;;13.40;99.90;;;;;;5016501;28;20358;-72
2022/11/07 08:12:04;;;;;;;;;;;13.40;99.90;;;;;;5024957;28;19913;-84
2022/11/07 08:14:30;;;;;;;;;;;13.40;99.90;;;;;;5020328;28;19921;-71
2022/11/07 08:16:56;;;;;;;;;;;13.40;99.90;;;;;;5030097;28;19921;-66
2022/11/07 08:19:22;;;;;;;;;;;13.40;99.90;;;;;;5018461;28;20387;-65
2022/11/07 08:21:47;;;;;;;;;;;13.40;99.90;;;;;;5020500;28;20358;-64
2022/11/07 08:24:13;;;;;;;;;;;13.30;99.90;;;;;;5024344;28;19913;-70
2022/11/07 08:26:39;;;;;;;;;;;13.30;99.90;;;;;;5024465;28;19920;-78
2022/11/07 08:29:04;;;;;;;;;;;13.30;99.90;;;;;;5029753;28;19913;-77
2022/11/07 08:31:30;;;;;;;;;;;13.30;99.90;;;;;;5022157;28;20388;-73
2022/11/07 08:33:56;;;;;;;;;;;13.40;99.90;;;;;;5023008;28;19960;-71
2022/11/07 08:36:21;;;;;;;;;;;13.50;99.90;;;;;;5023618;28;20004;-69
2022/11/07 08:38:47;;;;;;;;;;;13.50;99.90;;;;;;5020792;28;20373;-68
2022/11/07 08:41:12;;;;;;;;;;;13.50;99.90;;;;;;5027926;28;19917;-67
2022/11/07 08:43:38;;;;;;;;;;;13.50;99.90;;;;;;5023318;28;20320;-67
2022/11/07 08:46:04;;;;;;;;;;;13.60;99.90;;;;;;5028909;28;19913;-67
2022/11/07 08:48:29;;;;;;;;;;;13.60;99.90;;;;;;5024802;28;19913;-66
2022/11/07 08:50:56;;;;;;;;;;;13.60;99.90;;;;;;5018454;28;19913;-66
2022/11/07 08:53:22;;;;;;;;;;;13.60;99.90;;;;;;5021877;28;20020;-69
2022/11/07 08:55:48;;;;;;;;;;;13.70;99.90;;;;;;5023535;28;19913;-73
2022/11/07 08:58:14;;;;;;;;;;;13.70;99.90;;;;;;5022909;28;19913;-66
2022/11/07 09:00:39;;;;;;;;;;;13.60;99.90;;;;;;5014896;28;20550;-68
2022/11/07 09:03:06;;;;;;;;;;;13.60;99.90;;;;;;5015019;28;19924;-63
2022/11/07 09:05:31;;;;;;;;;;;13.60;99.90;;;;;;5027944;28;19958;-79
2022/11/07 09:07:57;;;;;;;;;;;13.60;99.90;;;;;;5028563;28;19923;-70
2022/11/07 09:10:23;;;;;;;;;;;13.70;99.90;;;;;;5018663;28;19913;-67
2022/11/07 09:12:49;;;;;;;;;;;13.70;99.90;;;;;;5017074;28;19913;-66
2022/11/07 09:15:15;;;;;;;;;;;13.80;99.90;;;;;;5025917;28;20284;-66
2022/11/07 09:17:40;;;;;;;;;;;13.80;99.90;;;;;;5022739;28;19928;-67
2022/11/07 09:20:07;;;;;;;;;;;13.80;99.90;;;;;;5026759;28;19960;-66
2022/11/07 09:22:32;;;;;;;;;;;13.70;99.90;;;;;;5024242;28;20277;-67
2022/11/07 09:24:58;;;;;;;;;;;13.80;99.90;;;;;;5023884;28;19913;-78
2022/11/07 09:27:23;;;;;;;;;;;13.70;99.90;;;;;;5022722;28;20003;-73
2022/11/07 09:29:49;;;;;;;;;;;13.70;99.90;;;;;;5026470;28;19914;-70
2022/11/07 09:32:14;;;;;;;;;;;13.70;99.90;;;;;;5022514;28;19967;-68
2022/11/07 09:34:40;;;;;;;;;;;13.70;99.90;;;;;;5017215;28;19922;-68
2022/11/07 09:37:05;;;;;;;;;;;13.70;99.90;;;;;;5021702;28;19967;-66
2022/11/07 09:39:31;;;;;;;;;;;13.80;99.90;;;;;;5022062;28;21672;-66
2022/11/07 09:42:02;;;;;;;;;;;13.80;99.90;;;;;;5020405;28;19917;-64
2022/11/07 09:44:28;;;;;;;;;;;13.80;99.90;;;;;;5019831;28;19960;-63
2022/11/07 09:46:53;;;;;;;;;;;13.80;99.90;;;;;;5024458;28;19952;-64
2022/11/07 09:49:26;;;;;;;;;;;13.50;99.90;;;;;;5021878;28;19919;-64
2022/11/07 09:51:55;;;;;;;;;;;13.90;99.90;;;;;;5018291;28;19957;-64
2022/11/07 09:54:23;;;;;;;;;;;13.90;99.90;;;;;;5019175;28;19925;-64
2022/11/07 09:56:49;;;;;;;;;;;14.00;99.90;;;;;;5018211;28;19913;-63
2022/11/07 09:59:21;;;;;;;;;;;14.10;99.90;;;;;;5015278;28;19920;-64
2022/11/07 10:01:47;;;;;;;;;;;14.20;99.90;;;;;;5020760;28;20007;-64
2022/11/07 10:04:16;;;;;;;;;;;14.30;99.90;;;;;;5012331;28;20293;-62
2022/11/07 10:06:45;;;;;;;;;;;14.30;99.90;;;;;;5016825;28;19948;-63
2022/11/07 10:09:19;;;;;;;;;;;14.30;99.90;;;;;;5021868;28;19914;-64
2022/11/07 10:12:03;;;;;;;;;;;14.40;99.90;;;;;;5018842;28;19913;-63
2022/11/07 10:14:29;;;;;;;;;;;14.50;99.90;;;;;;5017172;28;19925;-63
2022/11/07 10:17:00;;;;;;;;;;;14.50;99.90;;;;;;5014230;28;19920;-63
2022/11/07 10:19:26;;;;;;;;;;;14.50;99.90;;;;;;5017810;28;19921;-64
2022/11/07 10:22:15;;;;;;;;;;;14.50;99.90;;;;;;5016538;28;19920;-63
2022/11/07 10:25:04;;;;;;;;;;;14.60;99.90;;;;;;5022317;28;20297;-63
2022/11/07 10:27:30;;;;;;;;;;;14.70;99.90;;;;;;5018062;28;19921;-62
2022/11/07 10:29:56;;;;;;;;;;;14.80;99.90;;;;;;5021318;28;19946;-62
2022/11/07 10:32:32;;;;;;;;;;;14.80;99.90;;;;;;5013379;28;19922;-62
2022/11/07 10:35:34;;;;;;;;;;;14.80;99.90;;;;;;5015694;28;19921;-63
2022/11/07 10:38:14;;;;;;;;;;;14.80;99.90;;;;;;4998388;28;19987;-65
2022/11/07 10:40:41;;;;;;;;;;;14.90;99.90;;;;;;5003203;28;19918;-63
2022/11/07 10:43:17;;;;;;;;;;;14.80;99.90;;;;;;5002514;28;19926;-63
2022/11/07 10:45:43;;;;;;;;;;;14.80;99.90;;;;;;4997369;28;19929;-63
2022/11/07 10:48:11;;;;;;;;;;;14.80;99.90;;;;;;5004502;28;19914;-62
2022/11/07 10:50:37;;;;;;;;;;;15.00;99.90;;;;;;5006477;28;19924;-63
2022/11/07 10:53:08;;;;;;;;;;;15.10;99.90;;;;;;5004158;28;19922;-62
2022/11/07 10:55:44;;;;;;;;;;;15.20;99.90;;;;;;4996237;28;20561;-62
2022/11/07 10:58:22;;;;;;;;;;;15.10;99.90;;;;;;5003619;28;19948;-62
2022/11/07 11:01:00;;;;;;;;;;;15.10;99.90;;;;;;4998858;28;19917;-62
2022/11/07 11:03:28;;;;;;;;;;;15.00;99.90;;;;;;5005078;28;19928;-61
2022/11/07 11:05:54;;;;;;;;;;;15.10;99.90;;;;;;5003715;28;19917;-61
2022/11/07 11:08:21;;;;;;;;;;;15.10;99.90;;;;;;5001458;28;19921;-62
2022/11/07 11:10:47;;;;;;;;;;;15.00;99.90;;;;;;5003740;28;20003;-62
2022/11/07 11:16:23;;;;;;;;;;;14.80;99.90;;;;;;5022807;28;20020;-65
2022/11/07 11:18:49;;;;;;;;;;;14.60;99.90;;;;;;5025494;28;19917;-65
2022/11/07 11:21:15;;;;;;;;;;;14.60;99.90;;;;;;5027145;28;19917;-62
2022/11/07 11:23:42;;;;;;;;;;;14.60;99.90;;;;;;5020570;28;19959;-64
2022/11/07 11:26:26;;;;;;;;;;;14.60;99.90;;;;;;5026904;28;20352;-63
2022/11/07 11:29:12;;;;;;;;;;;14.60;99.90;;;;;;5026868;28;19917;-63
2022/11/07 11:31:51;;;;;;;;;;;14.60;99.90;;;;;;5019074;28;19921;-65
2022/11/07 11:34:35;;;;;;;;;;;14.60;99.90;;;;;;5019890;28;19925;-66
2022/11/07 11:37:14;;;;;;;;;;;14.60;99.90;;;;;;5022008;28;19999;-69
2022/11/07 11:39:43;;;;;;;;;;;14.50;99.90;;;;;;5020337;28;19953;-70
2022/11/07 11:42:27;;;;;;;;;;;14.30;99.90;;;;;;5016712;28;20000;-77
2022/11/07 11:44:55;;;;;;;;;;;14.20;99.90;;;;;;5022241;28;19929;-70
2022/11/07 11:47:29;;;;;;;;;;;14.10;99.90;;;;;;5022980;28;19913;-75
2022/11/07 11:49:55;;;;;;;;;;;14.10;99.90;;;;;;5022926;28;19913;-69
2022/11/07 11:52:21;;;;;;;;;;;14.20;99.90;;;;;;5026344;28;20277;-68
2022/11/07 11:54:48;;;;;;;;;;;14.20;99.90;;;;;;5018994;28;20400;-66
2022/11/07 11:57:17;;;;;;;;;;;14.20;99.90;;;;;;5025752;28;19920;-66
2022/11/07 11:59:48;;;;;;;;;;;14.30;99.90;;;;;;5024836;28;19913;-65
2022/11/07 12:02:20;;;;;;;;;;;14.30;99.90;;;;;;5021537;28;19913;-66
2022/11/07 12:05:04;;;;;;;;;;;14.40;99.90;;;;;;5025652;28;20035;-65
2022/11/07 12:07:30;;;;;;;;;;;14.50;99.90;;;;;;5022650;28;19913;-64
2022/11/07 12:09:59;;;;;;;;;;;14.60;99.90;;;;;;5026115;28;19913;-65
2022/11/07 12:12:31;;;;;;;;;;;14.60;99.90;;;;;;5017984;28;19925;-63
2022/11/07 12:15:08;;;;;;;;;;;14.70;99.90;;;;;;5023607;28;20461;-64
2022/11/07 12:17:33;;;;;;;;;;;14.80;99.90;;;;;;5016028;28;19996;-65
2022/11/07 12:20:12;;;;;;;;;;;14.80;99.90;;;;;;5020201;28;20076;-63
2022/11/07 12:22:56;;;;;;;;;;;14.90;99.90;;;;;;5019757;28;19917;-63
2022/11/07 12:25:51;;;;;;;;;;;14.90;99.90;;;;;;5020316;28;19975;-63
2022/11/07 12:28:19;;;;;;;;;;;15.10;99.90;;;;;;5012137;28;19989;-62
2022/11/07 12:30:57;;;;;;;;;;;15.20;99.90;;;;;;5025809;28;19924;-63
2022/11/07 12:33:41;;;;;;;;;;;15.30;99.90;;;;;;5018067;28;19968;-64
2022/11/07 12:36:21;;;;;;;;;;;15.30;99.90;;;;;;5018779;28;20458;-63
2022/11/07 12:38:50;;;;;;;;;;;15.20;99.90;;;;;;5018288;28;20388;-63
2022/11/07 12:41:30;;;;;;;;;;;15.10;99.90;;;;;;5023177;28;19944;-64
2022/11/07 12:44:03;;;;;;;;;;;15.10;99.90;;;;;;5022130;28;19929;-62
2022/11/07 12:46:29;;;;;;;;;;;15.00;99.90;;;;;;5020772;28;19975;-63
2022/11/07 12:48:54;;;;;;;;;;;15.10;99.90;;;;;;5016906;28;20381;-63
2022/11/07 12:51:29;;;;;;;;;;;15.10;99.90;;;;;;5018970;28;19914;-63
2022/11/07 12:53:59;;;;;;;;;;;15.00;99.90;;;;;;5024705;28;19976;-62
2022/11/07 12:56:28;;;;;;;;;;;15.00;99.90;;;;;;5020461;28;19961;-62
2022/11/07 12:58:54;;;;;;;;;;;14.90;99.90;;;;;;5017246;28;19921;-62
2022/11/07 13:01:22;;;;;;;;;;;14.90;99.90;;;;;;5022333;28;20390;-62
2022/11/07 13:04:04;;;;;;;;;;;14.90;99.90;;;;;;5032307;28;19917;-63
2022/11/07 13:06:35;;;;;;;;;;;14.90;99.90;;;;;;5013460;28;19914;-63
2022/11/07 13:09:11;;;;;;;;;;;14.80;99.90;;;;;;5026441;28;19928;-63
2022/11/07 13:11:43;;;;;;;;;;;14.80;99.90;;;;;;5015298;28;19934;-64
2022/11/07 13:14:20;;;;;;;;;;;14.70;99.90;;;;;;5017257;28;19921;-63
2022/11/07 13:17:11;;;;;;;;;;;14.70;99.90;;;;;;5018965;28;19922;-63
2022/11/07 13:19:39;;;;;;;;;;;14.80;99.90;;;;;;5018265;28;19917;-63
2022/11/07 13:22:06;;;;;;;;;;;14.90;99.90;;;;;;5021171;28;20349;-63
2022/11/07 13:24:35;;;;;;;;;;;15.00;99.90;;;;;;5019770;28;19916;-64
2022/11/07 13:27:01;;;;;;;;;;;15.10;99.90;;;;;;5017543;28;20292;-64
2022/11/07 13:29:32;;;;;;;;;;;15.00;99.90;;;;;;5022262;28;19917;-63
2022/11/07 13:32:23;;;;;;;;;;;15.00;99.90;;;;;;5019750;28;20357;-66
2022/11/07 13:34:58;;;;;;;;;;;14.90;99.90;;;;;;5026641;28;19967;-65
2022/11/07 13:37:26;;;;;;;;;;;15.10;99.90;;;;;;5017944;28;19960;-64
2022/11/07 13:39:55;;;;;;;;;;;15.50;99.90;;;;;;5016354;28;19924;-64
2022/11/07 13:42:22;;;;;;;;;;;15.70;99.90;;;;;;5022278;28;20432;-64
2022/11/07 13:44:50;;;;;;;;;;;16.00;99.90;;;;;;5020583;28;20443;-63
2022/11/07 13:47:19;;;;;;;;;;;16.30;99.90;;;;;;5020838;28;19913;-63
2022/11/07 13:49:45;;;;;;;;;;;16.60;99.90;;;;;;5025063;28;20348;-63
2022/11/07 13:52:30;;;;;;;;;;;16.70;99.90;;;;;;5024402;28;20293;-62
2022/11/07 13:55:15;;;;;;;;;;;16.70;99.90;;;;;;5021151;28;19975;-62
2022/11/07 13:57:42;;;;;;;;;;;16.50;99.90;;;;;;5022672;28;19913;-63
2022/11/07 14:00:13;;;;;;;;;;;16.20;99.90;;;;;;5014684;28;19960;-63
2022/11/07 14:02:52;;;;;;;;;;;16.10;99.90;;;;;;5018110;28;20300;-63
2022/11/07 14:05:20;;;;;;;;;;;15.90;99.90;;;;;;5019386;28;19952;-63
2022/11/07 14:07:59;;;;;;;;;;;15.80;99.90;;;;;;5019711;28;20396;-63
2022/11/07 14:10:36;;;;;;;;;;;15.80;99.90;;;;;;5025829;28;19913;-63
2022/11/07 14:13:10;;;;;;;;;;;15.60;99.90;;;;;;5018668;28;20293;-63
2022/11/07 14:15:41;;;;;;;;;;;15.90;99.90;;;;;;5018829;28;19917;-62
2022/11/07 14:18:11;;;;;;;;;;;15.90;99.90;;;;;;5022802;28;19914;-69
2022/11/07 14:20:36;;;;;;;;;;;15.80;99.90;;;;;;5023276;28;19967;-62
2022/11/07 14:23:02;;;;;;;;;;;15.80;99.90;;;;;;5025473;28;19952;-66
2022/11/07 14:25:29;;;;;;;;;;;15.80;99.90;;;;;;5022954;28;19920;-62
2022/11/07 14:27:55;;;;;;;;;;;15.70;99.90;;;;;;5018306;28;20008;-63
2022/11/07 14:30:21;;;;;;;;;;;15.70;99.90;;;;;;5018669;28;20003;-63
2022/11/07 14:32:48;;;;;;;;;;;15.70;99.90;;;;;;5018458;28;20364;-63
2022/11/07 14:35:17;;;;;;;;;;;15.70;99.90;;;;;;5023733;28;19921;-62
2022/11/07 14:37:42;;;;;;;;;;;15.70;99.90;;;;;;5018045;28;19964;-63
2022/11/07 14:40:08;;;;;;;;;;;15.60;99.90;;;;;;5021079;28;19953;-63
2022/11/07 14:42:34;;;;;;;;;;;15.60;99.90;;;;;;5023221;28;20288;-63